createdAt,value
2022-12-27T00:01:31.570Z,5.46
2022-12-27T00:03:58.136Z,5.40
2022-12-27T00:06:26.444Z,5.42
2022-12-27T00:08:53.327Z,5.39
2022-12-27T00:11:22.847Z,5.46
2022-12-27T00:13:49.956Z,5.46
2022-12-27T00:16:18.705Z,5.38
2022-12-27T00:18:46.472Z,5.40
2022-12-27T00:21:14.067Z,5.43
2022-12-27T00:23:44.717Z,5.35
2022-12-27T00:26:13.762Z,5.32
2022-12-27T00:28:40.534Z,5.35
2022-12-27T00:31:07.319Z,5.34
2022-12-27T00:33:36.161Z,5.40
2022-12-27T00:36:06.281Z,5.37
2022-12-27T00:38:33.499Z,5.28
2022-12-27T00:41:00.729Z,5.22
2022-12-27T00:43:27.458Z,5.24
2022-12-27T00:45:54.056Z,5.20
2022-12-27T00:48:20.893Z,5.18
2022-12-27T00:50:47.573Z,5.10
2022-12-27T00:53:14.274Z,5.03
2022-12-27T00:55:44.351Z,5.00
2022-12-27T00:58:11.665Z,5.06
2022-12-27T01:00:38.115Z,5.05
2022-12-27T01:03:04.675Z,4.96
2022-12-27T01:05:31.358Z,4.88
2022-12-27T01:07:57.761Z,5.05
2022-12-27T01:10:24.122Z,5.00
2022-12-27T01:12:50.512Z,5.01
2022-12-27T01:15:16.971Z,5.09
2022-12-27T01:17:43.353Z,5.15
2022-12-27T01:20:10.111Z,5.11
2022-12-27T01:22:36.878Z,5.21
2022-12-27T01:25:03.510Z,5.40
2022-12-27T01:27:29.918Z,5.40
2022-12-27T01:29:56.303Z,5.31
2022-12-27T01:32:22.843Z,5.28
2022-12-27T01:34:50.546Z,5.33
2022-12-27T01:37:17.073Z,5.35
2022-12-27T01:39:43.512Z,5.34
2022-12-27T01:42:35.411Z,5.24
2022-12-27T01:45:02.574Z,5.21
2022-12-27T01:47:45.214Z,5.20
2022-12-27T01:50:38.928Z,5.25
2022-12-27T01:53:19.745Z,5.20
2022-12-27T01:55:56.392Z,5.05
2022-12-27T01:58:40.678Z,4.94
2022-12-27T02:01:16.364Z,4.85
2022-12-27T02:04:07.796Z,4.97
2022-12-27T02:06:35.814Z,4.93
2022-12-27T02:09:24.150Z,4.97
2022-12-27T02:11:56.376Z,5.05
2022-12-27T02:14:29.589Z,5.10
2022-12-27T02:16:58.753Z,5.12
2022-12-27T02:19:40.527Z,5.13
2022-12-27T02:23:03.420Z,5.09
2022-12-27T02:25:50.918Z,5.06
2022-12-27T02:28:54.484Z,5.09
2022-12-27T02:31:29.728Z,5.13
2022-12-27T02:33:59.951Z,5.05
2022-12-27T02:36:31.720Z,5.02
2022-12-27T02:39:01.507Z,4.97
2022-12-27T02:41:50.191Z,4.91
2022-12-27T02:44:37.039Z,4.81
2022-12-27T02:47:23.762Z,4.84
2022-12-27T02:50:25.350Z,4.82
2022-12-27T02:53:12.151Z,4.85
2022-12-27T02:56:18.745Z,4.90
2022-12-27T02:59:14.268Z,4.97
2022-12-27T03:02:18.947Z,4.99
2022-12-27T03:05:00.653Z,4.95
2022-12-27T03:07:46.619Z,4.93
2022-12-27T03:10:54.311Z,4.88
2022-12-27T03:13:53.048Z,4.95
2022-12-27T03:16:55.818Z,5.03
2022-12-27T03:19:56.745Z,4.98
2022-12-27T03:22:45.847Z,4.90
2022-12-27T03:25:29.388Z,4.82
2022-12-27T03:28:23.268Z,4.84
2022-12-27T03:31:13.390Z,4.81
2022-12-27T03:33:42.669Z,4.73
2022-12-27T03:36:34.683Z,4.68
2022-12-27T03:39:19.972Z,4.72
2022-12-27T03:42:09.733Z,4.70
2022-12-27T03:44:36.288Z,4.71
2022-12-27T03:47:16.010Z,4.67
2022-12-27T03:49:49.509Z,4.67
2022-12-27T03:52:19.759Z,4.65
2022-12-27T03:54:49.554Z,4.69
2022-12-27T03:57:19.690Z,4.69
2022-12-27T03:59:46.215Z,4.76
2022-12-27T04:02:12.938Z,4.75
2022-12-27T04:04:39.797Z,4.80
2022-12-27T04:07:06.956Z,4.85
2022-12-27T04:09:52.250Z,4.80
2022-12-27T04:12:37.006Z,4.75
2022-12-27T04:15:22.808Z,4.71
2022-12-27T04:18:07.638Z,4.69
2022-12-27T04:20:52.476Z,4.69
2022-12-27T04:23:37.334Z,4.69
2022-12-27T04:26:22.873Z,4.72
2022-12-27T04:29:07.812Z,4.70
2022-12-27T04:31:53.187Z,4.60
2022-12-27T04:34:38.157Z,4.65
2022-12-27T04:37:04.482Z,4.55
2022-12-27T04:39:32.028Z,4.60
2022-12-27T04:42:17.281Z,4.55
2022-12-27T04:45:03.954Z,4.55
2022-12-27T04:47:50.415Z,4.61
2022-12-27T04:50:45.808Z,4.56
2022-12-27T04:53:32.063Z,4.60
2022-12-27T04:55:58.550Z,4.58
2022-12-27T04:58:25.672Z,4.59
2022-12-27T05:01:14.311Z,4.63
2022-12-27T05:03:41.989Z,4.70
2022-12-27T05:06:08.707Z,4.72
2022-12-27T05:08:53.786Z,4.68
2022-12-27T05:11:39.167Z,4.74
2022-12-27T05:14:11.139Z,4.69
2022-12-27T05:16:39.911Z,4.63
2022-12-27T05:19:08.616Z,4.68
2022-12-27T05:21:37.059Z,4.72
2022-12-27T05:24:22.907Z,4.73
2022-12-27T05:26:49.560Z,4.78
2022-12-27T05:29:16.229Z,4.77
2022-12-27T05:31:42.839Z,4.78
2022-12-27T05:34:09.254Z,4.76
2022-12-27T05:36:35.655Z,4.85
2022-12-27T05:39:02.174Z,4.80
2022-12-27T05:41:28.621Z,4.77
2022-12-27T05:43:55.035Z,4.78
2022-12-27T05:46:22.274Z,4.81
2022-12-27T05:48:49.557Z,4.84
2022-12-27T05:51:19.181Z,4.81
2022-12-27T05:53:45.962Z,4.83
2022-12-27T05:56:18.765Z,4.83
2022-12-27T05:58:45.290Z,4.81
2022-12-27T06:01:14.864Z,4.75
2022-12-27T06:03:41.689Z,4.74
2022-12-27T06:06:08.788Z,4.68
2022-12-27T06:08:36.049Z,4.62
2022-12-27T06:11:14.150Z,4.52
2022-12-27T06:13:44.166Z,4.60
2022-12-27T06:16:12.170Z,4.72
2022-12-27T06:18:40.510Z,4.76
2022-12-27T06:21:16.165Z,4.73
2022-12-27T06:23:44.713Z,4.76
2022-12-27T06:26:18.722Z,4.73
2022-12-27T06:28:45.414Z,4.60
2022-12-27T06:31:11.850Z,4.49
2022-12-27T06:33:38.387Z,4.42
2022-12-27T06:36:11.459Z,4.41
2022-12-27T06:38:38.514Z,4.42
2022-12-27T06:41:07.162Z,4.42
2022-12-27T06:43:34.325Z,4.39
2022-12-27T06:46:03.647Z,4.40
2022-12-27T06:48:30.960Z,4.36
2022-12-27T06:50:57.812Z,4.35
2022-12-27T06:53:24.589Z,4.41
2022-12-27T06:55:51.079Z,4.37
2022-12-27T06:58:17.492Z,4.30
2022-12-27T07:00:44.027Z,4.29
2022-12-27T07:03:10.610Z,4.21
2022-12-27T07:05:38.040Z,4.21
2022-12-27T07:08:05.102Z,4.21
2022-12-27T07:10:31.821Z,4.13
2022-12-27T07:12:58.483Z,4.17
2022-12-27T07:15:25.028Z,4.18
2022-12-27T07:17:51.575Z,4.10
2022-12-27T07:20:18.108Z,4.02
2022-12-27T07:22:44.512Z,3.92
2022-12-27T07:25:10.934Z,3.81
2022-12-27T07:27:37.708Z,3.83
2022-12-27T07:30:05.239Z,3.84
2022-12-27T07:32:31.653Z,3.93
2022-12-27T07:34:58.006Z,3.85
2022-12-27T07:37:24.431Z,3.94
2022-12-27T07:39:50.910Z,4.01
2022-12-27T07:42:17.354Z,4.01
2022-12-27T07:44:43.772Z,3.91
2022-12-27T07:47:10.172Z,3.90
2022-12-27T07:49:36.605Z,3.91
2022-12-27T07:52:03.074Z,3.99
2022-12-27T07:54:29.478Z,4.02
2022-12-27T07:56:55.862Z,4.12
2022-12-27T07:59:22.402Z,4.12
2022-12-27T08:02:04.094Z,4.22
2022-12-27T08:04:32.155Z,4.17
2022-12-27T08:07:17.632Z,4.10
2022-12-27T08:09:46.363Z,4.10
2022-12-27T08:12:15.940Z,4.17
2022-12-27T08:14:42.343Z,4.20
2022-12-27T08:17:21.088Z,4.21
2022-12-27T08:19:47.637Z,4.25
2022-12-27T08:22:14.075Z,4.33
2022-12-27T08:24:41.614Z,4.41
2022-12-27T08:27:08.564Z,4.39
2022-12-27T08:29:34.971Z,4.40
2022-12-27T08:32:01.579Z,4.49
2022-12-27T08:34:28.063Z,4.62
2022-12-27T08:36:55.957Z,4.73
2022-12-27T08:39:23.180Z,4.71
2022-12-27T08:41:49.773Z,4.84
2022-12-27T08:44:16.148Z,4.87
2022-12-27T08:46:42.614Z,4.85
2022-12-27T08:49:09.036Z,4.78
2022-12-27T08:51:40.770Z,4.78
2022-12-27T08:54:07.884Z,4.83
2022-12-27T08:56:34.331Z,4.86
2022-12-27T08:59:00.904Z,4.89
2022-12-27T09:01:27.586Z,4.95
2022-12-27T09:03:54.260Z,4.94
2022-12-27T09:06:23.073Z,5.01
2022-12-27T09:08:51.208Z,5.09
2022-12-27T09:11:23.475Z,5.13
2022-12-27T09:13:50.291Z,5.17
2022-12-27T09:16:23.063Z,5.26
2022-12-27T09:18:51.962Z,5.26
2022-12-27T09:21:20.196Z,5.29
2022-12-27T09:23:47.230Z,5.37
2022-12-27T09:26:16.174Z,5.43
2022-12-27T09:28:43.149Z,5.38
2022-12-27T09:31:11.029Z,5.45
2022-12-27T09:33:37.656Z,5.53
2022-12-27T09:36:06.626Z,5.67
2022-12-27T09:38:33.495Z,5.78
2022-12-27T09:41:03.207Z,5.84
2022-12-27T09:43:40.321Z,5.96
2022-12-27T09:46:18.200Z,6.03
2022-12-27T09:48:44.964Z,6.16
2022-12-27T09:51:25.061Z,6.27
2022-12-27T09:54:04.440Z,6.38
2022-12-27T09:57:01.795Z,6.50
2022-12-27T09:59:34.163Z,6.52
2022-12-27T10:02:00.770Z,6.57
2022-12-27T10:04:52.914Z,6.65
2022-12-27T10:07:32.496Z,6.68
2022-12-27T10:10:18.775Z,6.73
2022-12-27T10:13:02.514Z,6.71
2022-12-27T10:15:46.884Z,6.69
2022-12-27T10:18:37.056Z,6.72
2022-12-27T10:21:19.666Z,6.74
2022-12-27T10:23:53.219Z,6.83
2022-12-27T10:26:20.382Z,6.85
2022-12-27T10:28:56.852Z,6.88
2022-12-27T10:31:25.191Z,6.82
2022-12-27T10:33:52.433Z,6.85
2022-12-27T10:36:29.595Z,6.82
2022-12-27T10:38:56.783Z,6.69
2022-12-27T10:41:33.488Z,6.72
2022-12-27T10:43:59.869Z,6.75
2022-12-27T10:46:33.124Z,6.77
2022-12-27T10:51:49.802Z,6.66
2022-12-27T10:54:21.158Z,6.77
2022-12-27T10:56:47.633Z,6.83
2022-12-27T10:59:21.861Z,6.79
2022-12-27T11:02:06.945Z,6.88
2022-12-27T11:04:33.483Z,6.96
2022-12-27T11:06:59.956Z,7.03
2022-12-27T11:09:29.189Z,7.05
2022-12-27T11:12:11.729Z,7.06
2022-12-27T11:14:38.253Z,7.07
2022-12-27T11:17:10.519Z,7.08
2022-12-27T11:19:39.843Z,7.15
2022-12-27T11:22:09.018Z,7.30
2022-12-27T11:24:36.247Z,7.36
2022-12-27T11:27:03.858Z,7.48
2022-12-27T11:29:32.085Z,7.67
2022-12-27T11:32:07.045Z,7.55
2022-12-27T11:34:37.484Z,7.50
2022-12-27T11:37:14.275Z,7.51
2022-12-27T11:39:44.861Z,7.44
2022-12-27T11:42:33.507Z,7.42
2022-12-27T11:45:11.243Z,7.55
2022-12-27T11:47:45.659Z,7.53
2022-12-27T11:50:27.271Z,7.46
2022-12-27T11:53:19.735Z,7.33
2022-12-27T11:56:05.702Z,7.29
2022-12-27T11:58:45.677Z,7.23
2022-12-27T12:01:27.734Z,7.22
2022-12-27T12:04:10.711Z,7.17
2022-12-27T12:07:11.606Z,7.13
2022-12-27T12:09:53.035Z,7.05
2022-12-27T12:12:55.583Z,6.82
2022-12-27T12:15:37.204Z,6.66
2022-12-27T12:18:21.983Z,6.61
2022-12-27T12:21:16.280Z,6.63
2022-12-27T12:24:13.589Z,6.59
2022-12-27T12:26:58.438Z,6.60
2022-12-27T12:29:43.329Z,6.59
2022-12-27T12:32:34.751Z,6.55
2022-12-27T12:35:23.877Z,6.56
2022-12-27T12:38:05.508Z,6.60
2022-12-27T12:40:54.053Z,6.65
2022-12-27T12:43:56.914Z,6.53
2022-12-27T12:46:37.144Z,6.47
2022-12-27T12:49:10.121Z,6.33
2022-12-27T12:52:03.156Z,6.23
2022-12-27T12:54:54.117Z,6.12
2022-12-27T12:57:57.932Z,6.03
2022-12-27T13:00:49.309Z,5.91
2022-12-27T13:03:40.563Z,5.96
2022-12-27T13:06:09.916Z,6.08
2022-12-27T13:09:11.766Z,6.09
2022-12-27T13:11:48.560Z,6.11
2022-12-27T13:14:27.226Z,6.05
2022-12-27T13:17:15.551Z,6.01
2022-12-27T13:20:37.860Z,5.94
2022-12-27T13:23:26.033Z,5.91
2022-12-27T13:26:03.399Z,5.90
2022-12-27T13:28:46.185Z,5.91
2022-12-27T13:31:39.993Z,5.95
2022-12-27T13:34:37.530Z,6.00
2022-12-27T13:37:31.128Z,5.99
2022-12-27T13:40:03.210Z,5.99
2022-12-27T13:43:05.775Z,5.99
2022-12-27T13:45:46.439Z,5.98
2022-12-27T13:48:44.153Z,5.96
2022-12-27T13:51:22.149Z,5.96
2022-12-27T13:53:51.064Z,5.94
2022-12-27T13:56:55.565Z,5.93
2022-12-27T13:59:52.529Z,5.92
2022-12-27T14:02:37.181Z,5.90
2022-12-27T14:05:09.680Z,5.90
2022-12-27T14:07:52.812Z,5.85
2022-12-27T14:10:19.310Z,5.82
2022-12-27T14:12:58.650Z,5.77
2022-12-27T14:15:41.039Z,5.73
2022-12-27T14:18:10.548Z,5.75
2022-12-27T14:21:24.712Z,5.71
2022-12-27T14:23:58.903Z,5.70
2022-12-27T14:26:39.807Z,5.72
2022-12-27T14:29:25.097Z,5.79
2022-12-27T14:32:03.673Z,5.93
2022-12-27T14:35:08.204Z,5.91
2022-12-27T14:37:56.382Z,5.93
2022-12-27T14:40:50.134Z,5.94
2022-12-27T14:43:34.808Z,5.95
2022-12-27T14:46:01.190Z,5.91
2022-12-27T14:48:58.151Z,5.87
2022-12-27T14:52:12.316Z,5.83
2022-12-27T14:55:10.621Z,5.72
2022-12-27T14:57:55.004Z,5.61
2022-12-27T15:00:24.295Z,5.64
2022-12-27T15:03:14.405Z,5.53
2022-12-27T15:06:20.226Z,5.54
2022-12-27T15:08:52.576Z,5.54
2022-12-27T15:11:28.620Z,5.48
2022-12-27T15:14:07.108Z,5.43
2022-12-27T15:16:52.347Z,5.41
2022-12-27T15:19:43.831Z,5.35
2022-12-27T15:22:23.129Z,5.41
2022-12-27T15:25:14.915Z,5.41
2022-12-27T15:27:47.028Z,5.51
2022-12-27T15:30:38.221Z,5.55
2022-12-27T15:33:26.542Z,5.56
2022-12-27T15:36:03.180Z,5.55
2022-12-27T15:38:35.446Z,5.54
2022-12-27T15:41:07.956Z,5.51
2022-12-27T15:43:43.479Z,5.43
2022-12-27T15:46:36.135Z,5.45
2022-12-27T15:49:45.226Z,5.57
2022-12-27T15:52:53.259Z,5.63
2022-12-27T15:55:34.864Z,5.62
2022-12-27T15:58:01.259Z,5.66
2022-12-27T16:00:33.812Z,5.67
2022-12-27T16:03:39.681Z,5.66
2022-12-27T16:06:07.717Z,5.68
2022-12-27T16:08:37.787Z,5.67
2022-12-27T16:11:09.646Z,5.70
2022-12-27T16:13:41.913Z,5.72
2022-12-27T16:16:28.496Z,5.71
2022-12-27T16:19:08.776Z,5.70
2022-12-27T16:21:41.665Z,5.73
2022-12-27T16:24:20.842Z,5.67
2022-12-27T16:27:00.446Z,5.74
2022-12-27T16:29:33.907Z,5.81
2022-12-27T16:32:19.871Z,5.81
2022-12-27T16:34:51.374Z,5.86
2022-12-27T16:37:44.719Z,5.87
2022-12-27T16:40:42.179Z,5.84
2022-12-27T16:43:08.534Z,5.78
2022-12-27T16:45:37.678Z,5.76
2022-12-27T16:48:35.131Z,5.76
2022-12-27T16:51:19.456Z,5.75
2022-12-27T16:53:48.845Z,5.70
2022-12-27T16:56:21.642Z,5.67
2022-12-27T16:58:48.327Z,5.63
2022-12-27T17:01:36.564Z,5.64
2022-12-27T17:04:04.063Z,5.68
2022-12-27T17:06:32.565Z,5.74
2022-12-27T17:09:09.171Z,5.81
2022-12-27T17:11:47.485Z,5.77
2022-12-27T17:14:27.879Z,5.79
2022-12-27T17:17:14.072Z,5.84
2022-12-27T17:19:48.766Z,5.84
2022-12-27T17:22:17.081Z,5.84
2022-12-27T17:24:45.817Z,5.86
2022-12-27T17:27:26.271Z,5.84
2022-12-27T17:30:14.615Z,5.81
2022-12-27T17:33:03.192Z,5.78
2022-12-27T17:35:39.084Z,5.73
2022-12-27T17:38:36.350Z,5.76
2022-12-27T17:41:15.956Z,5.69
2022-12-27T17:44:14.319Z,5.75
2022-12-27T17:47:05.609Z,5.73
2022-12-27T17:49:34.668Z,5.75
2022-12-27T17:52:20.513Z,5.78
2022-12-27T17:55:05.395Z,5.86
2022-12-27T17:57:50.603Z,5.89
2022-12-27T18:00:32.853Z,5.91
2022-12-27T18:03:02.664Z,5.95
2022-12-27T18:05:32.680Z,6.04
2022-12-27T18:08:05.305Z,6.01
2022-12-27T18:10:34.432Z,6.06
2022-12-27T18:13:04.589Z,6.07
2022-12-27T18:15:34.548Z,6.05
2022-12-27T18:18:09.090Z,5.98
2022-12-27T18:20:38.527Z,6.04
2022-12-27T18:23:05.479Z,6.12
2022-12-27T18:25:36.349Z,6.22
2022-12-27T18:28:15.037Z,6.22
2022-12-27T18:31:12.941Z,6.31
2022-12-27T18:33:43.813Z,6.35
2022-12-27T18:36:34.958Z,6.39
2022-12-27T18:39:28.149Z,6.30
2022-12-27T18:41:56.671Z,6.29
2022-12-27T18:44:46.572Z,6.31
2022-12-27T18:47:21.537Z,6.24
2022-12-27T18:49:58.236Z,6.18
2022-12-27T18:52:31.622Z,6.13
2022-12-27T18:55:19.154Z,6.06
2022-12-27T18:57:46.826Z,6.08
2022-12-27T19:00:26.468Z,6.04
2022-12-27T19:02:54.827Z,6.12
2022-12-27T19:05:21.559Z,6.13
2022-12-27T19:07:52.342Z,6.15
2022-12-27T19:10:21.629Z,6.11
2022-12-27T19:12:48.896Z,6.00
2022-12-27T19:15:22.064Z,6.03
2022-12-27T19:17:52.460Z,6.05
2022-12-27T19:20:25.989Z,6.01
2022-12-27T19:22:55.694Z,6.04
2022-12-27T19:25:24.077Z,5.97
2022-12-27T19:28:19.731Z,5.98
2022-12-27T19:31:17.575Z,5.93
2022-12-27T19:33:51.366Z,5.92
2022-12-27T19:36:24.953Z,5.85
2022-12-27T19:38:51.668Z,5.86
2022-12-27T19:41:18.125Z,5.85
2022-12-27T19:43:46.135Z,5.84
2022-12-27T19:46:13.848Z,5.86
2022-12-27T19:48:41.024Z,5.85
2022-12-27T19:51:09.822Z,5.89
2022-12-27T19:53:42.102Z,5.96
2022-12-27T19:56:09.937Z,5.95
2022-12-27T19:58:36.537Z,5.93
2022-12-27T20:01:03.416Z,5.95
2022-12-27T20:03:29.961Z,5.98
2022-12-27T20:06:13.026Z,5.99
2022-12-27T20:08:49.512Z,6.06
2022-12-27T20:11:19.154Z,6.02
2022-12-27T20:13:45.825Z,6.03
2022-12-27T20:16:14.591Z,6.04
2022-12-27T20:18:41.930Z,6.06
2022-12-27T20:21:13.177Z,6.05
2022-12-27T20:23:39.622Z,6.04
2022-12-27T20:26:06.163Z,6.06
2022-12-27T20:28:33.437Z,6.05
2022-12-27T20:31:04.977Z,6.02
2022-12-27T20:33:31.368Z,6.04
2022-12-27T20:35:58.481Z,6.06
2022-12-27T20:38:25.912Z,6.12
2022-12-27T20:40:52.593Z,6.10
2022-12-27T20:43:20.242Z,6.12
2022-12-27T20:45:46.803Z,6.10
2022-12-27T20:48:13.242Z,6.14
2022-12-27T20:50:41.104Z,6.16
2022-12-27T20:53:07.840Z,6.21
2022-12-27T20:55:34.765Z,6.21
2022-12-27T20:58:01.312Z,6.20
2022-12-27T21:00:28.090Z,6.24
2022-12-27T21:02:54.676Z,6.21
2022-12-27T21:05:21.200Z,6.20
2022-12-27T21:07:47.580Z,6.15
2022-12-27T21:10:14.171Z,6.10
2022-12-27T21:12:40.815Z,6.03
2022-12-27T21:15:08.612Z,5.99
2022-12-27T21:17:35.243Z,5.96
2022-12-27T21:20:01.678Z,5.90
2022-12-27T21:22:28.272Z,5.88
2022-12-27T21:24:54.667Z,5.82
2022-12-27T21:27:21.085Z,5.83
2022-12-27T21:29:47.511Z,5.80
2022-12-27T21:32:13.950Z,5.76
2022-12-27T21:34:41.248Z,5.73
2022-12-27T21:37:12.987Z,5.69
2022-12-27T21:39:40.011Z,5.69
2022-12-27T21:42:06.413Z,5.64
2022-12-27T21:44:35.279Z,5.67
2022-12-27T21:47:01.672Z,5.64
2022-12-27T21:49:28.078Z,5.65
2022-12-27T21:51:55.616Z,5.66
2022-12-27T21:54:22.147Z,5.64
2022-12-27T21:56:48.632Z,5.57
2022-12-27T21:59:15.017Z,5.56
2022-12-27T22:01:50.448Z,5.51
2022-12-27T22:04:19.077Z,5.49
2022-12-27T22:06:47.528Z,5.45
2022-12-27T22:09:15.027Z,5.46
2022-12-27T22:11:41.477Z,5.45
2022-12-27T22:14:07.985Z,5.43
2022-12-27T22:16:37.055Z,5.43
2022-12-27T22:19:09.178Z,5.45
2022-12-27T22:21:37.905Z,5.42
2022-12-27T22:24:05.384Z,5.40
2022-12-27T22:26:37.217Z,5.38
2022-12-27T22:29:06.720Z,5.36
2022-12-27T22:31:37.973Z,5.34
2022-12-27T22:34:05.757Z,5.32
2022-12-27T22:36:32.935Z,5.32
2022-12-27T22:39:00.276Z,5.32
2022-12-27T22:41:29.518Z,5.31
2022-12-27T22:44:01.099Z,5.28
2022-12-27T22:46:32.000Z,5.27
2022-12-27T22:49:07.531Z,5.27
2022-12-27T22:51:36.008Z,5.28
2022-12-27T22:54:04.016Z,5.30
2022-12-27T22:56:32.896Z,5.33
2022-12-27T22:58:59.869Z,5.33
2022-12-27T23:01:30.668Z,5.27
2022-12-27T23:03:59.378Z,5.24
2022-12-27T23:06:27.035Z,5.21
2022-12-27T23:08:54.284Z,5.19
2022-12-27T23:11:27.191Z,5.20
2022-12-27T23:13:57.160Z,5.20
2022-12-27T23:16:24.011Z,5.18
2022-12-27T23:18:50.804Z,5.18
2022-12-27T23:21:21.186Z,5.19
2022-12-27T23:23:52.135Z,5.17
2022-12-27T23:26:21.249Z,5.17
2022-12-27T23:28:48.641Z,5.18
2022-12-27T23:31:15.737Z,5.20
2022-12-27T23:33:43.186Z,5.18
2022-12-27T23:36:10.814Z,5.20
2022-12-27T23:38:37.566Z,5.19
2022-12-27T23:41:06.612Z,5.20
2022-12-27T23:43:55.296Z,5.24
2022-12-27T23:46:31.224Z,5.21
2022-12-27T23:48:59.222Z,5.22
2022-12-27T23:51:26.298Z,5.20
2022-12-27T23:53:52.786Z,5.16
2022-12-27T23:56:23.055Z,5.18
2022-12-27T23:58:50.858Z,5.21
